Time;durP1;ratioP1;P1;durP2;ratioP2;P2;SDS_P1;SDS_P2;PMS_P1;PMS_P2;Temp;Humidity;BMP_temperature;BMP_pressure;BME280_temperature;BME280_humidity;BME280_pressure;Samples;Min_cycle;Max_cycle;Signal;HPM_P1;HPM_P2
2021/12/10 00:00:13;;;;;;;5.00;2.47;;;7.60;99.90;;;;;;5105181;28;20326;-75
2021/12/10 00:02:46;;;;;;;2.13;1.90;;;7.60;99.90;;;;;;5114156;28;20219;-75
2021/12/10 00:05:25;;;;;;;3.00;2.60;;;7.60;99.90;;;;;;5104123;28;20648;-77
2021/12/10 00:07:56;;;;;;;2.08;1.77;;;7.50;99.90;;;;;;5110104;28;20219;-77
2021/12/10 00:10:31;;;;;;;1.70;1.60;;;7.40;99.90;;;;;;5110414;28;20226;-76
2021/12/10 00:13:05;;;;;;;2.20;2.10;;;7.30;99.90;;;;;;5112591;28;20235;-79
2021/12/10 00:15:39;;;;;;;1.80;1.70;;;7.30;99.90;;;;;;5109860;27;20249;-75
2021/12/10 00:18:13;;;;;;;2.45;2.25;;;7.20;99.90;;;;;;5115912;27;20215;-77
2021/12/10 00:20:46;;;;;;;2.53;2.05;;;7.10;99.90;;;;;;5117051;27;20222;-78
2021/12/10 00:23:20;;;;;;;5.05;2.90;;;7.20;99.90;;;;;;5109526;28;20219;-80
2021/12/10 00:25:53;;;;;;;3.00;2.22;;;7.20;99.90;;;;;;5101678;27;20243;-79
2021/12/10 00:28:31;;;;;;;2.50;2.30;;;7.10;99.90;;;;;;5099922;28;20216;-74
2021/12/10 00:31:15;;;;;;;2.45;2.03;;;6.90;99.90;;;;;;5113690;27;20323;-75
2021/12/10 00:33:52;;;;;;;5.90;2.40;;;6.90;99.90;;;;;;5093962;28;20235;-76
2021/12/10 00:36:26;;;;;;;1.70;1.60;;;6.80;99.90;;;;;;5112567;27;20231;-74
2021/12/10 00:38:59;;;;;;;1.80;1.70;;;6.70;99.90;;;;;;5113152;27;20302;-79
2021/12/10 00:41:30;;;;;;;2.45;1.60;;;6.70;99.90;;;;;;5104912;27;20217;-75
2021/12/10 00:44:03;;;;;;;2.05;1.95;;;6.70;99.90;;;;;;5107887;27;20230;-73
2021/12/10 00:50:21;;;;;;;3.10;2.50;;;6.70;99.90;;;;;;5087950;28;20269;-79
2021/12/10 00:52:54;;;;;;;2.90;2.50;;;6.70;99.90;;;;;;5091694;28;20250;-83
2021/12/10 00:55:27;;;;;;;3.72;2.60;;;6.70;99.90;;;;;;5099822;28;20223;-78
2021/12/10 00:57:59;;;;;;;2.70;2.50;;;6.80;99.90;;;;;;5095798;28;20339;-79
2021/12/10 01:00:41;;;;;;;2.90;2.70;;;6.80;99.90;;;;;;5086371;27;20252;-75
2021/12/10 01:03:17;;;;;;;3.10;2.90;;;6.70;99.90;;;;;;5098634;28;20227;-80
2021/12/10 01:05:51;;;;;;;2.40;2.00;;;6.60;99.90;;;;;;5098015;28;20238;-75
2021/12/10 01:08:22;;;;;;;2.60;2.40;;;6.50;99.90;;;;;;5101439;28;20235;-75
2021/12/10 01:10:57;;;;;;;3.42;3.13;;;6.40;99.90;;;;;;5100672;28;20262;-75
2021/12/10 01:13:32;;;;;;;3.20;2.90;;;6.60;99.90;;;;;;5103712;28;20672;-75
2021/12/10 01:23:40;;;;;;;3.42;3.13;;;6.60;99.90;;;;;;5097015;28;20227;-75
2021/12/10 01:25:06;;;;;;;3.33;3.03;;;6.60;99.90;;;;;;5107807;27;20212;-73
2021/12/10 01:30:54;;;;;;;4.10;3.28;;;6.60;99.90;;;;;;5111795;27;20310;-74
2021/12/10 01:33:32;;;;;;;4.13;3.72;;;6.60;99.90;;;;;;5114018;27;20271;-72
2021/12/10 01:36:10;;;;;;;5.32;3.65;;;6.50;99.90;;;;;;5112981;27;20597;-73
2021/12/10 01:38:45;;;;;;;3.65;3.35;;;6.40;99.90;;;;;;5111742;27;20211;-72
2021/12/10 01:41:23;;;;;;;3.85;3.13;;;6.30;99.90;;;;;;5109727;27;20214;-72
2021/12/10 01:44:01;;;;;;;4.20;2.90;;;6.30;99.90;;;;;;5100037;27;20219;-71
2021/12/10 01:46:38;;;;;;;3.65;3.15;;;6.10;99.90;;;;;;5099374;27;20536;-72
2021/12/10 01:49:37;;;;;;;4.15;3.75;;;6.00;99.90;;;;;;5111964;27;20270;-75
2021/12/10 01:52:22;;;;;;;3.85;3.55;;;5.90;99.90;;;;;;5109266;27;20587;-72
2021/12/10 01:55:28;;;;;;;4.80;4.40;;;5.80;99.90;;;;;;5119008;27;20668;-76
2021/12/10 02:05:27;;;;;;;3.00;2.58;;;5.80;99.90;;;;;;5084089;28;20296;-91
2021/12/10 02:13:06;;;;;;;4.07;3.55;;;5.70;99.90;;;;;;5077230;28;20270;-74
2021/12/10 02:23:44;;;;;;;4.40;4.00;;;5.80;99.90;;;;;;5101558;27;20672;-84
2021/12/10 02:30:49;;;;;;;6.03;5.53;;;5.80;99.90;;;;;;5055400;27;20386;-74
2021/12/10 02:33:57;;;;;;;7.07;5.97;;;5.80;99.90;;;;;;5106637;28;20245;-75
2021/12/10 02:36:42;;;;;;;6.63;5.97;;;5.80;99.90;;;;;;5065149;28;20242;-75
2021/12/10 02:40:19;;;;;;;7.65;6.90;;;5.70;99.90;;;;;;5085939;28;20216;-91
2021/12/10 02:43:04;;;;;;;6.72;6.13;;;5.70;99.90;;;;;;5112358;28;20240;-73
2021/12/10 02:45:37;;;;;;;6.97;6.28;;;5.70;99.90;;;;;;5105164;27;20627;-72
2021/12/10 02:48:09;;;;;;;6.38;5.85;;;5.70;99.90;;;;;;5097613;27;20215;-72
2021/12/10 02:50:40;;;;;;;6.20;5.60;;;5.70;99.90;;;;;;5115161;27;20225;-73
2021/12/10 02:53:14;;;;;;;9.18;6.53;;;5.70;99.90;;;;;;5113052;27;20677;-71
2021/12/10 02:55:46;;;;;;;7.25;5.82;;;5.70;99.90;;;;;;5121095;27;20218;-73
2021/12/10 03:14:55;;;;;;;9.23;8.40;;;6.10;99.90;;;;;;5026228;28;20216;-74
2021/12/10 03:17:35;;;;;;;11.23;7.57;;;6.10;99.90;;;;;;5083851;28;20228;-75
2021/12/10 03:24:51;;;;;;;5.97;4.82;;;6.10;99.90;;;;;;5079329;28;20218;-80
2021/12/10 03:27:24;;;;;;;5.25;4.75;;;6.10;99.90;;;;;;5065845;28;20888;-71
2021/12/10 03:29:55;;;;;;;5.05;4.65;;;6.10;99.90;;;;;;5091769;28;20220;-68
2021/12/10 04:27:36;;;;;;;3.22;2.33;;;6.20;99.90;;;;;;5086161;28;20220;-70
2021/12/10 04:30:10;;;;;;;3.97;2.47;;;6.30;99.90;;;;;;5081493;28;20631;-69
2021/12/10 04:32:42;;;;;;;4.78;2.70;;;6.20;99.90;;;;;;5079157;28;20224;-73
2021/12/10 04:53:39;;;;;;;5.85;3.33;;;6.20;99.90;;;;;;5092243;28;20223;-71
2021/12/10 04:56:10;;;;;;;4.68;2.85;;;6.20;99.90;;;;;;5080978;28;20678;-70
2021/12/10 04:58:42;;;;;;;3.40;3.10;;;6.10;99.90;;;;;;5094245;28;20271;-72
2021/12/10 05:01:25;;;;;;;4.22;2.80;;;6.10;99.90;;;;;;5076235;28;20322;-73
2021/12/10 05:03:58;;;;;;;4.55;3.25;;;6.10;99.90;;;;;;5081949;28;20711;-74
2021/12/10 05:27:06;;;;;;;3.75;3.45;;;6.00;99.90;;;;;;5109971;27;20289;-73
2021/12/10 05:30:34;;;;;;;3.72;3.42;;;6.00;99.90;;;;;;5097385;28;20227;-75
2021/12/10 05:33:14;;;;;;;6.28;3.47;;;6.00;99.90;;;;;;5098566;28;20219;-73
2021/12/10 05:35:47;;;;;;;3.20;2.90;;;6.00;99.90;;;;;;5097997;27;20688;-71
2021/12/10 05:38:19;;;;;;;3.47;2.85;;;6.00;99.90;;;;;;5102638;27;20220;-72
2021/12/10 05:41:28;;;;;;;4.80;2.75;;;6.00;99.90;;;;;;5086232;28;20322;-75
2021/12/10 05:44:17;;;;;;;3.65;2.67;;;6.00;99.90;;;;;;5101956;27;20567;-73
2021/12/10 05:46:48;;;;;;;4.13;2.75;;;6.00;99.90;;;;;;5099710;27;20231;-72
2021/12/10 05:49:19;;;;;;;2.70;2.25;;;6.00;99.90;;;;;;5099459;28;20212;-73
2021/12/10 05:51:50;;;;;;;2.78;2.58;;;6.00;99.90;;;;;;5093875;27;20255;-73
2021/12/10 05:54:22;;;;;;;3.15;2.85;;;6.00;99.90;;;;;;5102921;27;20603;-72
2021/12/10 05:56:55;;;;;;;3.08;2.35;;;5.90;99.90;;;;;;5101986;27;20242;-74
2021/12/10 05:59:34;;;;;;;3.53;3.20;;;5.90;99.90;;;;;;5104178;27;20223;-72
2021/12/10 06:02:08;;;;;;;4.38;3.47;;;5.70;99.90;;;;;;5104381;27;20711;-73
2021/12/10 06:04:40;;;;;;;4.88;3.97;;;5.70;99.90;;;;;;5119056;27;20289;-72
2021/12/10 06:07:16;;;;;;;6.03;4.18;;;5.60;99.90;;;;;;5116729;27;20222;-73
2021/12/10 06:12:57;;;;;;;4.40;4.00;;;5.40;99.90;;;;;;5097412;27;20322;-73
2021/12/10 06:16:00;;;;;;;4.18;3.78;;;5.40;99.90;;;;;;5108462;27;20279;-74
2021/12/10 06:25:09;;;;;;;6.28;5.68;;;5.40;99.90;;;;;;5070204;28;20680;-74
2021/12/10 06:27:49;;;;;;;6.90;5.25;;;5.50;99.90;;;;;;5094897;28;20219;-74
2021/12/10 06:30:30;;;;;;;7.38;6.70;;;5.40;99.90;;;;;;5106750;28;20299;-72
2021/12/10 06:33:10;;;;;;;7.05;6.35;;;5.50;99.90;;;;;;5104871;27;20211;-73
2021/12/10 06:35:46;;;;;;;7.88;6.45;;;5.50;99.90;;;;;;5101828;28;20215;-73
2021/12/10 06:38:18;;;;;;;7.30;6.60;;;5.50;99.90;;;;;;5104584;28;20292;-73
2021/12/10 06:40:52;;;;;;;7.82;7.03;;;5.50;99.90;;;;;;5102731;28;20219;-73
2021/12/10 06:43:30;;;;;;;6.63;6.03;;;5.50;99.90;;;;;;5119752;28;20224;-73
2021/12/10 06:46:06;;;;;;;6.18;5.68;;;5.60;99.90;;;;;;5112266;28;20215;-73
2021/12/10 06:48:40;;;;;;;7.50;6.25;;;5.50;99.90;;;;;;5117363;28;20330;-73
2021/12/10 06:51:18;;;;;;;6.90;6.20;;;5.50;99.90;;;;;;5119682;27;20278;-73
2021/12/10 06:53:49;;;;;;;7.43;6.82;;;5.50;99.90;;;;;;5112328;28;20215;-72
2021/12/10 06:56:23;;;;;;;7.97;7.18;;;5.40;99.90;;;;;;5094548;28;20607;-73
2021/12/10 06:58:57;;;;;;;6.85;6.18;;;5.40;99.90;;;;;;5107920;28;20257;-73
2021/12/10 07:01:34;;;;;;;8.57;6.55;;;5.50;99.90;;;;;;5103027;28;20203;-72
2021/12/10 07:04:16;;;;;;;7.00;6.40;;;5.50;99.90;;;;;;5111485;28;20544;-71
2021/12/10 07:06:49;;;;;;;7.35;6.05;;;5.50;99.90;;;;;;5108685;28;20334;-72
2021/12/10 07:09:22;;;;;;;9.00;7.00;;;5.50;99.90;;;;;;5101126;28;20725;-72
2021/12/10 07:11:55;;;;;;;7.20;6.60;;;5.60;99.90;;;;;;5115131;28;20242;-73
2021/12/10 07:14:26;;;;;;;7.32;6.63;;;5.60;99.90;;;;;;5105324;28;20298;-72
2021/12/10 07:16:57;;;;;;;6.97;6.38;;;5.60;99.90;;;;;;5115757;27;20215;-71
2021/12/10 07:19:35;;;;;;;7.72;6.95;;;5.50;99.90;;;;;;5111176;27;20212;-72
2021/12/10 07:22:12;;;;;;;7.68;6.97;;;5.50;99.90;;;;;;5106951;28;20222;-72
2021/12/10 07:24:43;;;;;;;7.10;6.40;;;5.50;99.90;;;;;;5109226;28;20227;-72
2021/12/10 07:27:19;;;;;;;6.40;5.85;;;5.60;99.90;;;;;;5090337;28;20225;-72
2021/12/10 07:29:53;;;;;;;10.23;6.53;;;5.70;99.90;;;;;;5086293;28;20666;-72
2021/12/10 07:32:23;;;;;;;6.55;6.05;;;5.70;99.90;;;;;;5092067;28;20222;-71
2021/12/10 07:34:56;;;;;;;6.68;5.68;;;5.60;99.90;;;;;;5093864;28;20319;-71
2021/12/10 07:37:27;;;;;;;6.93;6.22;;;5.70;99.90;;;;;;5098974;28;20230;-70
2021/12/10 07:39:58;;;;;;;6.07;5.63;;;5.70;99.90;;;;;;5096028;28;20220;-72
2021/12/10 07:42:29;;;;;;;6.13;5.47;;;5.70;99.90;;;;;;5080848;28;20307;-72
2021/12/10 07:45:00;;;;;;;5.57;5.07;;;5.70;99.90;;;;;;5077364;28;20220;-72
2021/12/10 07:47:35;;;;;;;5.95;5.40;;;5.70;99.90;;;;;;5085620;28;20295;-72
2021/12/10 07:50:11;;;;;;;6.90;6.20;;;5.70;99.90;;;;;;5093078;28;20674;-72
2021/12/10 07:52:44;;;;;;;8.40;5.75;;;5.70;99.90;;;;;;5084941;28;20229;-71
2021/12/10 07:55:18;;;;;;;5.43;4.93;;;5.70;99.90;;;;;;5083739;28;20219;-71
2021/12/10 07:57:50;;;;;;;5.57;5.13;;;5.70;99.90;;;;;;5088377;28;20247;-72
2021/12/10 08:00:24;;;;;;;5.07;4.60;;;5.70;99.90;;;;;;5087788;28;20228;-73
2021/12/10 08:02:55;;;;;;;5.13;4.63;;;5.70;99.90;;;;;;5090213;28;20221;-72
2021/12/10 08:05:28;;;;;;;5.18;4.32;;;5.70;99.90;;;;;;5093406;28;20645;-71
2021/12/10 08:08:02;;;;;;;4.93;4.43;;;5.70;99.90;;;;;;5092203;28;20673;-72
2021/12/10 08:10:33;;;;;;;4.32;4.00;;;5.70;99.90;;;;;;5082849;28;20226;-67
2021/12/10 08:13:04;;;;;;;4.55;4.05;;;5.70;99.90;;;;;;5097356;28;20249;-68
2021/12/10 08:15:36;;;;;;;4.70;4.30;;;5.70;99.90;;;;;;5091678;28;20217;-70
2021/12/10 08:18:07;;;;;;;4.75;3.83;;;5.80;99.90;;;;;;5095219;28;20303;-74
2021/12/10 08:20:42;;;;;;;4.60;4.15;;;5.70;99.90;;;;;;5091654;28;20247;-73
2021/12/10 08:23:13;;;;;;;4.93;4.10;;;5.70;99.90;;;;;;5101233;28;20224;-72
2021/12/10 08:25:44;;;;;;;4.32;3.78;;;5.60;99.90;;;;;;5091563;27;20243;-72
2021/12/10 08:28:15;;;;;;;4.00;3.60;;;5.60;99.90;;;;;;5111025;28;20227;-73
2021/12/10 08:30:49;;;;;;;4.45;3.40;;;5.60;99.90;;;;;;5121636;27;20280;-73
2021/12/10 08:33:28;;;;;;;4.00;3.60;;;5.70;99.90;;;;;;5102938;27;20227;-74
2021/12/10 08:36:05;;;;;;;4.00;3.65;;;5.60;99.90;;;;;;5101340;28;20224;-72
2021/12/10 08:38:37;;;;;;;4.70;4.00;;;5.60;99.90;;;;;;5109525;27;20315;-72
2021/12/10 08:41:14;;;;;;;3.67;3.30;;;5.60;99.90;;;;;;5108196;27;20225;-72
2021/12/10 08:43:46;;;;;;;3.78;3.58;;;5.50;99.90;;;;;;5103135;27;20232;-73
2021/12/10 08:46:17;;;;;;;3.80;3.50;;;5.50;99.90;;;;;;5111444;27;20207;-73
2021/12/10 08:48:49;;;;;;;4.93;3.80;;;5.50;99.90;;;;;;5111462;27;20223;-73
2021/12/10 08:51:25;;;;;;;4.20;3.58;;;5.50;99.90;;;;;;5121461;27;20211;-71
2021/12/10 08:53:56;;;;;;;4.18;3.60;;;5.50;99.90;;;;;;5110594;27;20225;-72
2021/12/10 08:56:26;;;;;;;3.88;3.35;;;5.50;99.90;;;;;;5114961;27;20215;-71
2021/12/10 08:58:58;;;;;;;3.60;3.28;;;5.60;99.90;;;;;;5108726;27;20231;-72
2021/12/10 09:01:33;;;;;;;8.18;3.60;;;5.70;99.90;;;;;;5112031;27;20212;-83
2021/12/10 09:04:07;;;;;;;4.03;3.63;;;5.70;99.90;;;;;;5113825;27;20225;-72
2021/12/10 09:06:42;;;;;;;4.68;3.75;;;5.80;99.90;;;;;;5110084;27;20219;-72
2021/12/10 09:09:14;;;;;;;5.68;3.83;;;5.80;99.90;;;;;;5107026;27;20290;-71
2021/12/10 09:11:49;;;;;;;4.47;3.83;;;5.80;99.90;;;;;;5112757;27;20306;-72
2021/12/10 09:14:24;;;;;;;3.92;3.45;;;5.90;99.90;;;;;;5105933;27;20210;-72
2021/12/10 09:16:57;;;;;;;5.60;3.22;;;5.90;99.90;;;;;;5110958;28;20576;-71
2021/12/10 09:19:28;;;;;;;5.90;3.30;;;5.90;99.90;;;;;;5103817;27;20228;-72
2021/12/10 09:22:01;;;;;;;3.28;2.97;;;5.90;99.90;;;;;;5097989;27;20212;-71
2021/12/10 09:24:32;;;;;;;4.32;2.95;;;6.00;99.90;;;;;;5108392;28;20636;-72
2021/12/10 09:27:05;;;;;;;4.65;3.33;;;6.10;99.90;;;;;;5104554;27;20238;-71
2021/12/10 09:29:39;;;;;;;3.30;3.10;;;6.20;99.90;;;;;;5107135;27;20214;-71
2021/12/10 09:32:13;;;;;;;4.32;3.55;;;6.10;99.90;;;;;;5106416;27;20218;-72
2021/12/10 09:34:44;;;;;;;3.53;3.22;;;6.10;99.90;;;;;;5122764;27;20579;-72
2021/12/10 09:37:17;;;;;;;4.82;3.50;;;6.10;99.90;;;;;;5119088;27;20233;-71
2021/12/10 09:39:49;;;;;;;3.83;3.53;;;6.10;99.90;;;;;;5117434;27;20227;-71
2021/12/10 09:42:22;;;;;;;4.00;3.40;;;6.10;99.90;;;;;;5113547;27;20257;-72
2021/12/10 09:44:54;;;;;;;3.40;3.10;;;6.10;99.90;;;;;;5112602;27;20220;-72
2021/12/10 09:47:25;;;;;;;2.92;2.72;;;6.00;99.90;;;;;;5126123;27;20227;-72
2021/12/10 09:49:57;;;;;;;4.43;3.15;;;6.00;99.90;;;;;;5109190;27;20217;-72
2021/12/10 09:52:29;;;;;;;3.40;3.08;;;6.00;99.90;;;;;;5124429;27;20237;-72
2021/12/10 09:55:01;;;;;;;6.07;3.88;;;6.00;99.90;;;;;;5112648;27;20705;-72
2021/12/10 09:57:37;;;;;;;3.50;2.65;;;6.00;99.90;;;;;;5103770;27;20224;-72
2021/12/10 10:00:26;;;;;;;2.92;2.72;;;6.00;99.90;;;;;;5107313;27;20223;-72
2021/12/10 10:02:58;;;;;;;4.25;3.38;;;6.00;99.90;;;;;;5108503;27;20222;-72
2021/12/10 10:05:30;;;;;;;5.78;3.30;;;6.00;99.90;;;;;;5117897;27;20274;-73
2021/12/10 10:08:05;;;;;;;4.95;3.00;;;6.00;99.90;;;;;;5101682;27;20231;-73
2021/12/10 10:10:38;;;;;;;4.03;2.80;;;6.00;99.90;;;;;;5106347;27;20298;-73
2021/12/10 10:13:10;;;;;;;3.78;3.30;;;5.90;99.90;;;;;;5101178;28;20212;-71
2021/12/10 10:15:45;;;;;;;3.33;2.95;;;5.90;99.90;;;;;;5103851;27;20304;-71
2021/12/10 10:18:20;;;;;;;3.08;2.75;;;5.90;99.90;;;;;;5098939;28;20216;-72
2021/12/10 10:20:54;;;;;;;4.55;3.05;;;5.90;99.90;;;;;;5108584;27;20227;-74
2021/12/10 10:23:27;;;;;;;3.80;3.50;;;6.00;99.90;;;;;;5106377;28;20298;-73
2021/12/10 10:26:11;;;;;;;3.38;3.08;;;5.90;99.90;;;;;;5100960;27;20726;-74
2021/12/10 10:28:43;;;;;;;2.78;2.58;;;6.00;99.90;;;;;;5095589;28;20216;-73
2021/12/10 10:31:19;;;;;;;5.07;3.38;;;6.00;99.90;;;;;;5128198;27;20237;-73
2021/12/10 10:33:54;;;;;;;3.13;2.72;;;6.00;99.90;;;;;;5123619;27;20288;-72
2021/12/10 10:36:28;;;;;;;3.42;3.13;;;5.80;99.90;;;;;;5102259;27;20216;-72
2021/12/10 10:39:09;;;;;;;3.35;2.90;;;5.90;99.90;;;;;;5115417;28;20215;-73
2021/12/10 10:41:50;;;;;;;4.63;3.17;;;5.90;99.90;;;;;;5107756;27;20315;-72
2021/12/10 10:44:22;;;;;;;3.42;3.05;;;5.90;99.90;;;;;;5109502;28;20216;-71
2021/12/10 10:46:56;;;;;;;3.45;2.42;;;5.90;99.90;;;;;;5111411;28;20220;-72
2021/12/10 10:49:41;;;;;;;3.25;2.95;;;5.90;99.90;;;;;;5095773;28;20242;-72
2021/12/10 10:52:24;;;;;;;3.58;2.90;;;5.90;99.90;;;;;;5115470;28;20307;-72
2021/12/10 10:55:00;;;;;;;5.20;2.75;;;5.90;99.90;;;;;;5106395;28;20223;-72
2021/12/10 10:57:33;;;;;;;3.88;2.83;;;5.80;99.90;;;;;;5096574;28;20223;-71
2021/12/10 11:00:20;;;;;;;3.03;2.83;;;5.80;99.90;;;;;;5112668;28;20226;-71
2021/12/10 11:02:53;;;;;;;2.58;2.38;;;5.80;99.90;;;;;;5112064;28;20318;-71
2021/12/10 11:05:26;;;;;;;4.35;3.03;;;5.90;99.90;;;;;;5105416;28;20919;-72
2021/12/10 11:08:00;;;;;;;5.43;3.00;;;5.90;99.90;;;;;;5109283;27;20234;-72
2021/12/10 11:10:35;;;;;;;3.15;2.80;;;5.80;99.90;;;;;;5118741;27;20211;-72
2021/12/10 11:13:16;;;;;;;4.63;3.53;;;5.80;99.90;;;;;;5118020;27;20213;-72
2021/12/10 11:15:59;;;;;;;4.88;3.08;;;5.80;99.90;;;;;;5109366;27;20238;-72
2021/12/10 11:18:43;;;;;;;3.60;3.40;;;5.70;99.90;;;;;;5111236;27;20226;-72
2021/12/10 11:21:14;;;;;;;2.80;2.60;;;5.70;99.90;;;;;;5131223;27;20254;-72
2021/12/10 11:23:45;;;;;;;3.72;2.90;;;5.70;99.90;;;;;;5100548;28;20222;-72
2021/12/10 11:26:18;;;;;;;3.20;3.00;;;5.60;99.90;;;;;;5111880;27;20231;-73
2021/12/10 11:28:53;;;;;;;4.38;2.97;;;5.60;99.90;;;;;;5110370;28;20255;-73
2021/12/10 11:31:24;;;;;;;3.67;3.35;;;5.60;99.90;;;;;;5105704;27;20647;-71
2021/12/10 11:33:55;;;;;;;4.32;2.85;;;5.50;99.90;;;;;;5127840;27;20741;-73
2021/12/10 11:36:28;;;;;;;3.53;3.22;;;5.40;99.90;;;;;;5125251;27;20219;-72
2021/12/10 11:39:01;;;;;;;4.10;2.90;;;5.40;99.90;;;;;;5104043;28;20310;-73
2021/12/10 11:41:38;;;;;;;4.47;3.00;;;5.30;99.90;;;;;;5100438;27;20231;-72
2021/12/10 11:44:37;;;;;;;3.65;2.75;;;5.20;99.90;;;;;;5104925;27;20221;-73
2021/12/10 11:47:26;;;;;;;3.83;3.10;;;5.20;99.90;;;;;;5107904;27;20296;-73
2021/12/10 11:49:58;;;;;;;3.30;3.10;;;5.20;99.90;;;;;;5098531;27;20639;-72
2021/12/10 11:52:29;;;;;;;4.93;3.25;;;5.10;99.90;;;;;;5122483;27;20687;-72
2021/12/10 11:55:07;;;;;;;5.05;3.30;;;5.10;99.90;;;;;;5110997;27;20216;-73
2021/12/10 11:57:42;;;;;;;3.20;2.90;;;5.10;99.90;;;;;;5119762;27;20603;-73
2021/12/10 12:00:19;;;;;;;3.80;3.35;;;5.00;99.90;;;;;;5105908;27;20307;-73
2021/12/10 12:02:54;;;;;;;4.72;3.08;;;5.10;99.90;;;;;;5114330;27;20215;-72
2021/12/10 12:05:29;;;;;;;5.20;3.10;;;5.10;99.90;;;;;;5117176;27;20227;-72
2021/12/10 12:08:02;;;;;;;4.88;3.38;;;5.20;99.90;;;;;;5123463;27;20213;-72
2021/12/10 12:10:38;;;;;;;3.85;3.40;;;5.10;99.90;;;;;;5117248;27;20219;-72
2021/12/10 12:13:23;;;;;;;5.07;3.58;;;5.10;99.90;;;;;;5111122;27;20281;-70
2021/12/10 12:15:56;;;;;;;3.50;3.20;;;5.20;99.90;;;;;;5110267;27;20216;-68
2021/12/10 12:18:29;;;;;;;6.00;3.30;;;5.30;99.90;;;;;;5099347;27;20269;-69
2021/12/10 12:21:03;;;;;;;3.97;2.75;;;5.40;99.90;;;;;;5104645;27;20227;-69
2021/12/10 12:26:31;;;;;;;6.15;3.30;;;5.50;99.90;;;;;;5117990;27;20758;-75
2021/12/10 12:29:25;;;;;;;4.25;2.90;;;5.50;99.90;;;;;;5108858;27;20212;-74
2021/12/10 12:38:36;;;;;;;4.78;3.03;;;5.50;99.90;;;;;;5106043;27;20567;-76
2021/12/10 12:41:33;;;;;;;2.65;2.45;;;5.50;99.90;;;;;;5108541;27;20594;-75
2021/12/10 12:44:20;;;;;;;3.28;3.03;;;5.50;99.90;;;;;;5107950;27;20223;-75
2021/12/10 12:47:13;;;;;;;4.90;3.13;;;5.50;99.90;;;;;;5121194;27;20303;-72
2021/12/10 12:50:02;;;;;;;4.60;2.85;;;5.50;99.90;;;;;;5118788;27;20243;-73
2021/12/10 12:52:39;;;;;;;3.97;3.58;;;5.50;99.90;;;;;;5109503;27;20208;-73
2021/12/10 12:55:42;;;;;;;4.53;3.08;;;5.60;99.90;;;;;;5128402;27;20318;-73
2021/12/10 12:58:24;;;;;;;4.32;3.00;;;5.70;99.90;;;;;;5111483;27;20673;-73
2021/12/10 13:01:21;;;;;;;3.55;2.90;;;5.70;99.90;;;;;;5101004;27;20317;-75
2021/12/10 13:03:58;;;;;;;3.30;3.00;;;5.70;99.90;;;;;;5110682;27;20306;-73
2021/12/10 13:06:52;;;;;;;4.53;3.60;;;5.80;99.90;;;;;;5111163;27;20224;-75
2021/12/10 13:09:35;;;;;;;4.97;3.53;;;5.80;99.90;;;;;;5131631;27;20237;-73
2021/12/10 13:12:11;;;;;;;3.20;2.90;;;5.80;99.90;;;;;;5117182;27;20277;-73
2021/12/10 13:14:50;;;;;;;6.35;3.45;;;5.80;99.90;;;;;;5113861;27;20265;-72
2021/12/10 13:17:24;;;;;;;4.03;3.60;;;5.80;99.90;;;;;;5102587;27;20298;-72
2021/12/10 13:19:59;;;;;;;3.95;3.10;;;5.80;99.90;;;;;;5114887;27;20673;-74
2021/12/10 13:22:32;;;;;;;4.80;3.47;;;5.80;99.90;;;;;;5109318;28;20234;-73
2021/12/10 13:25:06;;;;;;;5.15;3.33;;;5.80;99.90;;;;;;5103935;27;20226;-73
2021/12/10 13:27:40;;;;;;;4.53;4.13;;;5.80;99.90;;;;;;5110704;28;20679;-73
2021/12/10 13:30:15;;;;;;;5.22;4.13;;;5.80;99.90;;;;;;5109481;27;20211;-73
2021/12/10 13:32:48;;;;;;;8.00;4.85;;;5.80;99.90;;;;;;5105033;28;20220;-73
2021/12/10 13:35:23;;;;;;;4.32;3.88;;;5.80;99.90;;;;;;5096564;27;20208;-74
2021/12/10 13:37:59;;;;;;;7.88;4.45;;;5.80;99.90;;;;;;5120066;27;20239;-73
2021/12/10 13:40:34;;;;;;;5.07;4.15;;;5.80;99.90;;;;;;5110674;27;20218;-76
2021/12/10 13:43:14;;;;;;;4.50;4.10;;;5.80;99.90;;;;;;5119246;27;20238;-74
2021/12/10 13:45:52;;;;;;;4.20;3.90;;;5.80;99.90;;;;;;5111872;27;20242;-74
2021/12/10 13:48:37;;;;;;;4.10;3.80;;;5.80;99.90;;;;;;5105792;27;20211;-75
2021/12/10 13:51:14;;;;;;;5.45;3.80;;;5.80;99.90;;;;;;5109083;27;20562;-74
2021/12/10 13:54:00;;;;;;;4.18;3.80;;;5.80;99.90;;;;;;5114358;27;20215;-75
2021/12/10 13:56:31;;;;;;;4.13;3.72;;;5.80;99.90;;;;;;5119945;27;20231;-75
2021/12/10 13:59:06;;;;;;;3.85;3.55;;;5.80;99.90;;;;;;5100796;27;20296;-76
2021/12/10 14:01:58;;;;;;;4.07;3.78;;;5.80;99.90;;;;;;5120345;27;20230;-74
2021/12/10 14:04:38;;;;;;;4.35;3.75;;;5.90;99.90;;;;;;5098132;27;20215;-74
2021/12/10 14:07:15;;;;;;;5.05;4.57;;;5.90;99.90;;;;;;5115158;27;20214;-74
2021/12/10 14:09:57;;;;;;;3.78;3.47;;;5.90;99.90;;;;;;5109110;27;20224;-76
2021/12/10 14:12:32;;;;;;;4.30;4.00;;;5.90;99.90;;;;;;5124753;27;20310;-72
2021/12/10 14:15:19;;;;;;;6.53;3.53;;;5.90;99.90;;;;;;5117435;27;20219;-74
2021/12/10 14:18:06;;;;;;;7.50;3.80;;;6.00;99.90;;;;;;5102169;27;20219;-72
2021/12/10 14:21:05;;;;;;;5.03;4.63;;;5.90;99.90;;;;;;5113506;27;20212;-74
2021/12/10 14:24:00;;;;;;;4.95;4.43;;;5.80;99.90;;;;;;5112871;27;20211;-74
2021/12/10 14:27:17;;;;;;;5.20;4.70;;;5.80;99.90;;;;;;5118293;27;20593;-74
2021/12/10 14:30:20;;;;;;;5.05;4.57;;;5.90;99.90;;;;;;5106293;28;20211;-74
2021/12/10 14:33:08;;;;;;;4.32;3.97;;;5.90;99.90;;;;;;5092523;28;20937;-73
2021/12/10 14:35:55;;;;;;;5.65;4.40;;;5.90;99.90;;;;;;5117380;27;20708;-75
2021/12/10 14:38:37;;;;;;;6.57;5.55;;;5.90;99.90;;;;;;5109848;28;20327;-74
2021/12/10 14:41:39;;;;;;;7.45;4.53;;;5.90;99.90;;;;;;5114477;27;20676;-73
2021/12/10 14:44:18;;;;;;;5.10;4.70;;;5.90;99.90;;;;;;5123200;28;20215;-73
2021/12/10 14:46:57;;;;;;;4.72;4.22;;;5.90;99.90;;;;;;5129504;28;20222;-73
2021/12/10 14:49:49;;;;;;;5.28;4.88;;;5.90;99.90;;;;;;5117499;28;20215;-75
2021/12/10 14:52:46;;;;;;;4.40;4.05;;;5.90;99.90;;;;;;5119647;28;20203;-74
2021/12/10 14:55:40;;;;;;;5.75;4.88;;;5.90;99.90;;;;;;5107798;28;20650;-74
2021/12/10 14:58:33;;;;;;;4.50;3.80;;;5.90;99.90;;;;;;5116319;28;20263;-73
2021/12/10 15:01:24;;;;;;;5.68;4.55;;;5.80;99.90;;;;;;5100727;28;20234;-74
2021/12/10 15:04:55;;;;;;;4.15;3.75;;;5.80;99.90;;;;;;5098626;28;20212;-73
2021/12/10 15:07:49;;;;;;;4.90;4.40;;;5.90;99.90;;;;;;5099204;28;20313;-75
2021/12/10 15:10:43;;;;;;;4.85;4.45;;;5.80;99.90;;;;;;5108292;28;20216;-73
2021/12/10 15:13:41;;;;;;;7.20;4.60;;;5.70;99.90;;;;;;5109688;28;20211;-73
2021/12/10 15:16:46;;;;;;;4.78;4.38;;;5.70;99.90;;;;;;5112984;28;20215;-74
2021/12/10 15:19:25;;;;;;;6.47;4.88;;;5.70;99.90;;;;;;5109563;28;20250;-74
2021/12/10 15:22:01;;;;;;;6.45;5.53;;;5.80;99.90;;;;;;5111735;28;20282;-74
2021/12/10 15:24:40;;;;;;;5.35;4.95;;;5.80;99.90;;;;;;5112439;28;20231;-74
2021/12/10 15:27:14;;;;;;;6.43;5.82;;;5.80;99.90;;;;;;5114816;28;20227;-74
2021/12/10 15:29:51;;;;;;;4.85;4.45;;;5.80;99.90;;;;;;5109829;28;20308;-74
2021/12/10 15:32:24;;;;;;;5.05;4.65;;;5.80;99.90;;;;;;5094096;28;20252;-74
2021/12/10 15:35:25;;;;;;;5.75;4.53;;;5.70;99.90;;;;;;5088696;28;20228;-74
2021/12/10 15:38:02;;;;;;;5.00;4.50;;;5.70;99.90;;;;;;5097397;28;20224;-74
2021/12/10 15:40:40;;;;;;;5.35;4.85;;;5.70;99.90;;;;;;5107011;28;20303;-74
2021/12/10 15:43:14;;;;;;;5.80;5.20;;;5.80;99.90;;;;;;5109015;28;20228;-73
2021/12/10 15:45:50;;;;;;;4.82;4.22;;;5.70;99.90;;;;;;5095501;27;20219;-73
2021/12/10 15:48:24;;;;;;;5.22;4.35;;;5.70;99.90;;;;;;5108656;28;20584;-73
2021/12/10 15:51:00;;;;;;;5.15;4.65;;;5.70;99.90;;;;;;5121303;28;20253;-73
2021/12/10 15:53:37;;;;;;;5.25;4.85;;;5.80;99.90;;;;;;5123871;27;20231;-72
2021/12/10 15:56:15;;;;;;;5.35;4.53;;;5.80;99.90;;;;;;5113278;27;20220;-72
2021/12/10 15:58:47;;;;;;;5.60;4.63;;;5.80;99.90;;;;;;5121442;27;20215;-74
2021/12/10 16:01:30;;;;;;;5.57;4.63;;;5.90;99.90;;;;;;5109483;27;20229;-73
2021/12/10 16:04:10;;;;;;;5.68;5.20;;;5.90;99.90;;;;;;5110063;27;20226;-74
2021/12/10 16:06:54;;;;;;;6.60;5.15;;;5.90;99.90;;;;;;5112041;27;20262;-74
2021/12/10 16:09:31;;;;;;;5.60;5.10;;;5.90;99.90;;;;;;5110411;27;20347;-74
2021/12/10 16:12:12;;;;;;;6.07;5.57;;;6.00;99.90;;;;;;5101067;27;20226;-75
2021/12/10 16:14:49;;;;;;;5.57;5.10;;;6.00;99.90;;;;;;5117603;27;20215;-74
2021/12/10 16:17:28;;;;;;;6.03;5.43;;;6.00;99.90;;;;;;5110325;27;20215;-74
2021/12/10 16:20:02;;;;;;;5.20;4.80;;;6.10;99.90;;;;;;5113248;27;20219;-74
2021/12/10 16:22:35;;;;;;;6.35;4.97;;;6.10;99.90;;;;;;5114114;27;20234;-74
2021/12/10 16:28:24;;;;;;;5.95;5.45;;;6.10;99.90;;;;;;5112667;27;20238;-75
2021/12/10 16:31:02;;;;;;;5.50;5.00;;;6.10;99.90;;;;;;5108030;27;20255;-75
2021/12/10 16:33:55;;;;;;;7.97;5.47;;;6.20;99.90;;;;;;5115219;27;20222;-76
2021/12/10 16:36:36;;;;;;;7.65;5.38;;;6.20;99.90;;;;;;5117560;27;20226;-76
2021/12/10 16:39:19;;;;;;;11.63;6.25;;;6.30;99.90;;;;;;5119600;27;20619;-75
2021/12/10 16:42:17;;;;;;;7.47;5.38;;;6.30;99.90;;;;;;5116118;27;20343;-75
2021/12/10 16:48:20;;;;;;;6.03;5.00;;;6.20;99.90;;;;;;5099972;27;20289;-75
2021/12/10 16:55:26;;;;;;;5.72;5.18;;;6.40;99.90;;;;;;5100371;27;20665;-75
2021/12/10 17:01:58;;;;;;;5.18;4.78;;;6.40;99.90;;;;;;5091048;27;20216;-70